sensor_id;sensor_type;location;lat;lon;timestamp;temperature;humidity
2190;DHT22;1101;51.056;7.262;2022-12-05T00:01:14;2.60;99.90
2190;DHT22;1101;51.056;7.262;2022-12-05T00:03:42;2.60;99.90
2190;DHT22;1101;51.056;7.262;2022-12-05T00:06:10;2.60;99.90
2190;DHT22;1101;51.056;7.262;2022-12-05T00:08:38;2.60;99.90
2190;DHT22;1101;51.056;7.262;2022-12-05T00:11:10;2.60;99.90
2190;DHT22;1101;51.056;7.262;2022-12-05T00:13:40;2.60;99.90
2190;DHT22;1101;51.056;7.262;2022-12-05T00:16:12;2.60;99.90
2190;DHT22;1101;51.056;7.262;2022-12-05T00:18:40;2.60;99.90
2190;DHT22;1101;51.056;7.262;2022-12-05T00:21:12;2.60;99.90
2190;DHT22;1101;51.056;7.262;2022-12-05T00:23:40;2.60;99.90
2190;DHT22;1101;51.056;7.262;2022-12-05T00:26:08;2.60;99.90
2190;DHT22;1101;51.056;7.262;2022-12-05T00:28:37;2.60;99.90
2190;DHT22;1101;51.056;7.262;2022-12-05T00:31:07;2.60;99.90
2190;DHT22;1101;51.056;7.262;2022-12-05T00:33:37;2.60;99.90
2190;DHT22;1101;51.056;7.262;2022-12-05T00:36:07;2.60;99.90
2190;DHT22;1101;51.056;7.262;2022-12-05T00:38:35;2.60;99.90
2190;DHT22;1101;51.056;7.262;2022-12-05T00:41:03;2.60;99.90
2190;DHT22;1101;51.056;7.262;2022-12-05T00:43:31;2.60;99.90
2190;DHT22;1101;51.056;7.262;2022-12-05T00:46:00;2.60;99.90
2190;DHT22;1101;51.056;7.262;2022-12-05T00:48:29;2.60;99.90
2190;DHT22;1101;51.056;7.262;2022-12-05T00:51:04;2.60;99.90
2190;DHT22;1101;51.056;7.262;2022-12-05T00:53:32;2.60;99.90
2190;DHT22;1101;51.056;7.262;2022-12-05T00:56:01;2.60;99.90
2190;DHT22;1101;51.056;7.262;2022-12-05T00:58:29;2.60;99.90
2190;DHT22;1101;51.056;7.262;2022-12-05T01:01:03;2.60;99.90
2190;DHT22;1101;51.056;7.262;2022-12-05T01:03:31;2.60;99.90
2190;DHT22;1101;51.056;7.262;2022-12-05T01:05:59;2.60;99.90
2190;DHT22;1101;51.056;7.262;2022-12-05T01:08:28;2.60;99.90
2190;DHT22;1101;51.056;7.262;2022-12-05T01:10:57;2.60;99.90
2190;DHT22;1101;51.056;7.262;2022-12-05T01:13:25;2.60;99.90
2190;DHT22;1101;51.056;7.262;2022-12-05T01:15:54;2.60;99.90
2190;DHT22;1101;51.056;7.262;2022-12-05T01:18:23;2.60;99.90
2190;DHT22;1101;51.056;7.262;2022-12-05T01:20:51;2.60;99.90
2190;DHT22;1101;51.056;7.262;2022-12-05T01:23:20;2.50;99.90
2190;DHT22;1101;51.056;7.262;2022-12-05T01:25:50;2.50;99.90
2190;DHT22;1101;51.056;7.262;2022-12-05T01:28:18;2.50;99.90
2190;DHT22;1101;51.056;7.262;2022-12-05T01:30:48;2.40;99.90
2190;DHT22;1101;51.056;7.262;2022-12-05T01:33:16;2.40;99.90
2190;DHT22;1101;51.056;7.262;2022-12-05T01:35:44;2.40;99.90
2190;DHT22;1101;51.056;7.262;2022-12-05T01:38:12;2.30;99.90
2190;DHT22;1101;51.056;7.262;2022-12-05T01:40:40;2.30;99.90
2190;DHT22;1101;51.056;7.262;2022-12-05T01:43:14;2.30;99.90
2190;DHT22;1101;51.056;7.262;2022-12-05T01:45:44;2.30;99.90
2190;DHT22;1101;51.056;7.262;2022-12-05T01:48:15;2.30;99.90
2190;DHT22;1101;51.056;7.262;2022-12-05T01:50:46;2.30;99.90
2190;DHT22;1101;51.056;7.262;2022-12-05T01:53:14;2.30;99.90
2190;DHT22;1101;51.056;7.262;2022-12-05T01:55:43;2.30;99.90
2190;DHT22;1101;51.056;7.262;2022-12-05T01:58:14;2.30;99.90
2190;DHT22;1101;51.056;7.262;2022-12-05T02:00:42;2.30;99.90
2190;DHT22;1101;51.056;7.262;2022-12-05T02:03:14;2.30;99.90
2190;DHT22;1101;51.056;7.262;2022-12-05T02:05:44;2.30;99.90
2190;DHT22;1101;51.056;7.262;2022-12-05T02:08:13;2.30;99.90
2190;DHT22;1101;51.056;7.262;2022-12-05T02:10:46;2.20;99.90
2190;DHT22;1101;51.056;7.262;2022-12-05T02:13:30;2.20;99.90
2190;DHT22;1101;51.056;7.262;2022-12-05T02:16:04;2.20;99.90
2190;DHT22;1101;51.056;7.262;2022-12-05T02:18:44;2.30;99.90
2190;DHT22;1101;51.056;7.262;2022-12-05T02:21:44;2.30;99.90
2190;DHT22;1101;51.056;7.262;2022-12-05T02:24:44;2.20;99.90
2190;DHT22;1101;51.056;7.262;2022-12-05T02:27:41;2.20;99.90
2190;DHT22;1101;51.056;7.262;2022-12-05T02:30:15;2.20;99.90
2190;DHT22;1101;51.056;7.262;2022-12-05T02:32:59;2.20;99.90
2190;DHT22;1101;51.056;7.262;2022-12-05T02:35:39;2.20;99.90
2190;DHT22;1101;51.056;7.262;2022-12-05T02:38:16;2.20;99.90
2190;DHT22;1101;51.056;7.262;2022-12-05T02:40:51;2.20;99.90
2190;DHT22;1101;51.056;7.262;2022-12-05T02:43:24;2.20;99.90
2190;DHT22;1101;51.056;7.262;2022-12-05T02:45:59;2.10;99.90
2190;DHT22;1101;51.056;7.262;2022-12-05T02:48:28;2.10;99.90
2190;DHT22;1101;51.056;7.262;2022-12-05T02:50:58;2.10;99.90
2190;DHT22;1101;51.056;7.262;2022-12-05T02:53:27;2.10;99.90
2190;DHT22;1101;51.056;7.262;2022-12-05T02:55:56;2.10;99.90
2190;DHT22;1101;51.056;7.262;2022-12-05T02:58:30;2.10;99.90
2190;DHT22;1101;51.056;7.262;2022-12-05T03:01:01;2.10;99.90
2190;DHT22;1101;51.056;7.262;2022-12-05T03:03:31;2.10;99.90
2190;DHT22;1101;51.056;7.262;2022-12-05T03:06:03;2.10;99.90
2190;DHT22;1101;51.056;7.262;2022-12-05T03:08:35;2.00;99.90
2190;DHT22;1101;51.056;7.262;2022-12-05T03:11:04;2.10;99.90
2190;DHT22;1101;51.056;7.262;2022-12-05T03:13:43;2.00;99.90
2190;DHT22;1101;51.056;7.262;2022-12-05T03:16:17;2.00;99.90
2190;DHT22;1101;51.056;7.262;2022-12-05T03:18:48;2.00;99.90
2190;DHT22;1101;51.056;7.262;2022-12-05T03:21:25;2.00;99.90
2190;DHT22;1101;51.056;7.262;2022-12-05T03:23:59;2.00;99.90
2190;DHT22;1101;51.056;7.262;2022-12-05T03:26:36;1.90;99.90
2190;DHT22;1101;51.056;7.262;2022-12-05T03:29:23;1.90;99.90
2190;DHT22;1101;51.056;7.262;2022-12-05T03:32:01;1.90;99.90
2190;DHT22;1101;51.056;7.262;2022-12-05T03:34:37;1.90;99.90
2190;DHT22;1101;51.056;7.262;2022-12-05T03:37:12;1.90;99.90
2190;DHT22;1101;51.056;7.262;2022-12-05T03:39:46;1.90;99.90
2190;DHT22;1101;51.056;7.262;2022-12-05T03:42:17;1.80;99.90
2190;DHT22;1101;51.056;7.262;2022-12-05T03:44:53;1.80;99.90
2190;DHT22;1101;51.056;7.262;2022-12-05T03:47:28;1.80;99.90
2190;DHT22;1101;51.056;7.262;2022-12-05T03:50:03;1.80;99.90
2190;DHT22;1101;51.056;7.262;2022-12-05T03:52:34;1.80;99.90
2190;DHT22;1101;51.056;7.262;2022-12-05T03:55:26;1.80;99.90
2190;DHT22;1101;51.056;7.262;2022-12-05T03:57:57;1.80;99.90
2190;DHT22;1101;51.056;7.262;2022-12-05T04:00:28;1.70;99.90
2190;DHT22;1101;51.056;7.262;2022-12-05T04:03:04;1.70;99.90
2190;DHT22;1101;51.056;7.262;2022-12-05T04:05:38;1.70;99.90
2190;DHT22;1101;51.056;7.262;2022-12-05T04:08:14;1.70;99.90
2190;DHT22;1101;51.056;7.262;2022-12-05T04:10:46;1.70;99.90
2190;DHT22;1101;51.056;7.262;2022-12-05T04:13:18;1.60;99.90
2190;DHT22;1101;51.056;7.262;2022-12-05T04:15:50;1.70;99.90
2190;DHT22;1101;51.056;7.262;2022-12-05T04:18:43;1.60;99.90
2190;DHT22;1101;51.056;7.262;2022-12-05T04:21:14;1.60;99.90
2190;DHT22;1101;51.056;7.262;2022-12-05T04:24:17;1.60;99.90
2190;DHT22;1101;51.056;7.262;2022-12-05T04:27:11;1.60;99.90
2190;DHT22;1101;51.056;7.262;2022-12-05T04:29:47;1.60;99.90
2190;DHT22;1101;51.056;7.262;2022-12-05T04:32:18;1.60;99.90
2190;DHT22;1101;51.056;7.262;2022-12-05T04:34:52;1.60;99.90
2190;DHT22;1101;51.056;7.262;2022-12-05T04:37:23;1.60;99.90
2190;DHT22;1101;51.056;7.262;2022-12-05T04:39:55;1.60;99.90
2190;DHT22;1101;51.056;7.262;2022-12-05T04:42:27;1.60;99.90
2190;DHT22;1101;51.056;7.262;2022-12-05T04:45:01;1.60;99.90
2190;DHT22;1101;51.056;7.262;2022-12-05T04:47:34;1.60;99.90
2190;DHT22;1101;51.056;7.262;2022-12-05T04:50:05;1.60;99.90
2190;DHT22;1101;51.056;7.262;2022-12-05T04:52:35;1.60;99.90
2190;DHT22;1101;51.056;7.262;2022-12-05T04:55:07;1.60;99.90
2190;DHT22;1101;51.056;7.262;2022-12-05T04:57:41;1.60;99.90
2190;DHT22;1101;51.056;7.262;2022-12-05T05:00:12;1.60;99.90
2190;DHT22;1101;51.056;7.262;2022-12-05T05:02:44;1.60;99.90
2190;DHT22;1101;51.056;7.262;2022-12-05T05:05:16;1.60;99.90
2190;DHT22;1101;51.056;7.262;2022-12-05T05:07:46;1.60;99.90
2190;DHT22;1101;51.056;7.262;2022-12-05T05:10:17;1.60;99.90
2190;DHT22;1101;51.056;7.262;2022-12-05T05:12:46;1.60;99.90
2190;DHT22;1101;51.056;7.262;2022-12-05T05:15:13;1.60;99.90
2190;DHT22;1101;51.056;7.262;2022-12-05T05:17:41;1.60;99.90
2190;DHT22;1101;51.056;7.262;2022-12-05T05:20:09;1.60;99.90
2190;DHT22;1101;51.056;7.262;2022-12-05T05:22:55;1.50;99.90
2190;DHT22;1101;51.056;7.262;2022-12-05T05:25:24;1.60;99.90
2190;DHT22;1101;51.056;7.262;2022-12-05T05:27:54;1.50;99.90
2190;DHT22;1101;51.056;7.262;2022-12-05T05:30:23;1.50;99.90
2190;DHT22;1101;51.056;7.262;2022-12-05T05:32:51;1.50;99.90
2190;DHT22;1101;51.056;7.262;2022-12-05T05:35:19;1.50;99.90
2190;DHT22;1101;51.056;7.262;2022-12-05T05:37:47;1.50;99.90
2190;DHT22;1101;51.056;7.262;2022-12-05T05:40:17;1.50;99.90
2190;DHT22;1101;51.056;7.262;2022-12-05T05:42:46;1.50;99.90
2190;DHT22;1101;51.056;7.262;2022-12-05T05:45:15;1.50;99.90
2190;DHT22;1101;51.056;7.262;2022-12-05T05:47:43;1.50;99.90
2190;DHT22;1101;51.056;7.262;2022-12-05T05:50:12;1.50;99.90
2190;DHT22;1101;51.056;7.262;2022-12-05T05:52:47;1.50;99.90
2190;DHT22;1101;51.056;7.262;2022-12-05T05:55:16;1.50;99.90
2190;DHT22;1101;51.056;7.262;2022-12-05T05:57:44;1.50;99.90
2190;DHT22;1101;51.056;7.262;2022-12-05T06:00:13;1.50;99.90
2190;DHT22;1101;51.056;7.262;2022-12-05T06:02:41;1.50;99.90
2190;DHT22;1101;51.056;7.262;2022-12-05T06:05:09;1.50;99.90
2190;DHT22;1101;51.056;7.262;2022-12-05T06:07:37;1.50;99.90
2190;DHT22;1101;51.056;7.262;2022-12-05T06:10:06;1.50;99.90
2190;DHT22;1101;51.056;7.262;2022-12-05T06:12:35;1.50;99.90
2190;DHT22;1101;51.056;7.262;2022-12-05T06:15:04;1.50;99.90
2190;DHT22;1101;51.056;7.262;2022-12-05T06:17:32;1.50;99.90
2190;DHT22;1101;51.056;7.262;2022-12-05T06:20:00;1.50;99.90
2190;DHT22;1101;51.056;7.262;2022-12-05T06:22:28;1.50;99.90
2190;DHT22;1101;51.056;7.262;2022-12-05T06:24:57;1.50;99.90
2190;DHT22;1101;51.056;7.262;2022-12-05T06:27:25;1.50;99.90
2190;DHT22;1101;51.056;7.262;2022-12-05T06:29:54;1.50;99.90
2190;DHT22;1101;51.056;7.262;2022-12-05T06:32:22;1.50;99.90
2190;DHT22;1101;51.056;7.262;2022-12-05T06:34:50;1.50;99.90
2190;DHT22;1101;51.056;7.262;2022-12-05T06:37:18;1.50;99.90
2190;DHT22;1101;51.056;7.262;2022-12-05T06:39:46;1.50;99.90
2190;DHT22;1101;51.056;7.262;2022-12-05T06:42:13;1.50;99.90
2190;DHT22;1101;51.056;7.262;2022-12-05T06:44:41;1.50;99.90
2190;DHT22;1101;51.056;7.262;2022-12-05T06:47:10;1.50;99.90
2190;DHT22;1101;51.056;7.262;2022-12-05T06:49:38;1.50;99.90
2190;DHT22;1101;51.056;7.262;2022-12-05T06:52:06;1.50;99.90
2190;DHT22;1101;51.056;7.262;2022-12-05T06:54:34;1.50;99.90
2190;DHT22;1101;51.056;7.262;2022-12-05T06:57:01;1.50;99.90
2190;DHT22;1101;51.056;7.262;2022-12-05T06:59:29;1.50;99.90
2190;DHT22;1101;51.056;7.262;2022-12-05T07:01:57;1.50;99.90
2190;DHT22;1101;51.056;7.262;2022-12-05T07:04:25;1.50;99.90
2190;DHT22;1101;51.056;7.262;2022-12-05T07:06:54;1.50;99.90
2190;DHT22;1101;51.056;7.262;2022-12-05T07:09:23;1.50;99.90
2190;DHT22;1101;51.056;7.262;2022-12-05T07:12:11;1.50;99.90
2190;DHT22;1101;51.056;7.262;2022-12-05T07:14:40;1.50;99.90
2190;DHT22;1101;51.056;7.262;2022-12-05T07:17:16;1.50;99.90
2190;DHT22;1101;51.056;7.262;2022-12-05T07:19:47;1.50;99.90
2190;DHT22;1101;51.056;7.262;2022-12-05T07:22:16;1.50;99.90
2190;DHT22;1101;51.056;7.262;2022-12-05T07:24:43;1.50;99.90
2190;DHT22;1101;51.056;7.262;2022-12-05T07:27:12;1.50;99.90
2190;DHT22;1101;51.056;7.262;2022-12-05T07:29:40;1.50;99.90
2190;DHT22;1101;51.056;7.262;2022-12-05T07:32:08;1.50;99.90
2190;DHT22;1101;51.056;7.262;2022-12-05T07:34:36;1.50;99.90
2190;DHT22;1101;51.056;7.262;2022-12-05T07:37:06;1.50;99.90
2190;DHT22;1101;51.056;7.262;2022-12-05T07:39:34;1.50;99.90
2190;DHT22;1101;51.056;7.262;2022-12-05T07:42:02;1.50;99.90
2190;DHT22;1101;51.056;7.262;2022-12-05T07:44:30;1.50;99.90
2190;DHT22;1101;51.056;7.262;2022-12-05T07:46:58;1.50;99.90
2190;DHT22;1101;51.056;7.262;2022-12-05T07:49:25;1.60;99.90
2190;DHT22;1101;51.056;7.262;2022-12-05T07:51:53;1.50;99.90
2190;DHT22;1101;51.056;7.262;2022-12-05T07:54:22;1.50;99.90
2190;DHT22;1101;51.056;7.262;2022-12-05T07:56:50;1.50;99.90
2190;DHT22;1101;51.056;7.262;2022-12-05T07:59:18;1.50;99.90
2190;DHT22;1101;51.056;7.262;2022-12-05T08:01:46;1.60;99.90
2190;DHT22;1101;51.056;7.262;2022-12-05T08:04:14;1.60;99.90
2190;DHT22;1101;51.056;7.262;2022-12-05T08:06:42;1.60;99.90
2190;DHT22;1101;51.056;7.262;2022-12-05T08:09:09;1.60;99.90
2190;DHT22;1101;51.056;7.262;2022-12-05T08:11:39;1.60;99.90
2190;DHT22;1101;51.056;7.262;2022-12-05T08:14:07;1.60;99.90
2190;DHT22;1101;51.056;7.262;2022-12-05T08:16:35;1.60;99.90
2190;DHT22;1101;51.056;7.262;2022-12-05T08:19:05;1.60;99.90
2190;DHT22;1101;51.056;7.262;2022-12-05T08:21:33;1.60;99.90
2190;DHT22;1101;51.056;7.262;2022-12-05T08:24:03;1.60;99.90
2190;DHT22;1101;51.056;7.262;2022-12-05T08:26:33;1.60;99.90
2190;DHT22;1101;51.056;7.262;2022-12-05T08:29:04;1.60;99.90
2190;DHT22;1101;51.056;7.262;2022-12-05T08:31:35;1.70;99.90
2190;DHT22;1101;51.056;7.262;2022-12-05T08:34:03;1.60;99.90
2190;DHT22;1101;51.056;7.262;2022-12-05T08:36:31;1.60;99.90
2190;DHT22;1101;51.056;7.262;2022-12-05T08:39:01;1.60;99.90
2190;DHT22;1101;51.056;7.262;2022-12-05T08:41:29;1.60;99.90
2190;DHT22;1101;51.056;7.262;2022-12-05T08:43:58;1.70;99.90
2190;DHT22;1101;51.056;7.262;2022-12-05T08:46:28;1.70;99.90
2190;DHT22;1101;51.056;7.262;2022-12-05T08:48:56;1.70;99.90
2190;DHT22;1101;51.056;7.262;2022-12-05T08:51:24;1.70;99.90
2190;DHT22;1101;51.056;7.262;2022-12-05T08:53:52;1.70;99.90
2190;DHT22;1101;51.056;7.262;2022-12-05T08:56:22;1.70;99.90
2190;DHT22;1101;51.056;7.262;2022-12-05T08:58:53;1.70;99.90
2190;DHT22;1101;51.056;7.262;2022-12-05T09:01:32;1.70;99.90
2190;DHT22;1101;51.056;7.262;2022-12-05T09:04:02;1.70;99.90
2190;DHT22;1101;51.056;7.262;2022-12-05T09:06:32;1.70;99.90
2190;DHT22;1101;51.056;7.262;2022-12-05T09:09:04;1.80;99.90
2190;DHT22;1101;51.056;7.262;2022-12-05T09:11:34;1.80;99.90
2190;DHT22;1101;51.056;7.262;2022-12-05T09:14:02;1.80;99.90
2190;DHT22;1101;51.056;7.262;2022-12-05T09:16:33;1.80;99.90
2190;DHT22;1101;51.056;7.262;2022-12-05T09:19:08;1.80;99.90
2190;DHT22;1101;51.056;7.262;2022-12-05T09:21:37;1.80;99.90
2190;DHT22;1101;51.056;7.262;2022-12-05T09:24:05;1.80;99.90
2190;DHT22;1101;51.056;7.262;2022-12-05T09:26:32;1.80;99.90
2190;DHT22;1101;51.056;7.262;2022-12-05T09:29:01;1.90;99.90
2190;DHT22;1101;51.056;7.262;2022-12-05T09:31:29;1.90;99.90
2190;DHT22;1101;51.056;7.262;2022-12-05T09:33:59;1.90;99.90
2190;DHT22;1101;51.056;7.262;2022-12-05T09:36:29;1.90;99.90
2190;DHT22;1101;51.056;7.262;2022-12-05T09:39:00;1.90;99.90
2190;DHT22;1101;51.056;7.262;2022-12-05T09:41:42;1.90;99.90
2190;DHT22;1101;51.056;7.262;2022-12-05T09:44:57;2.00;99.90
2190;DHT22;1101;51.056;7.262;2022-12-05T09:47:33;2.00;99.90
2190;DHT22;1101;51.056;7.262;2022-12-05T09:50:12;1.90;99.90
2190;DHT22;1101;51.056;7.262;2022-12-05T09:52:43;2.00;99.90
2190;DHT22;1101;51.056;7.262;2022-12-05T09:55:14;2.00;99.90
2190;DHT22;1101;51.056;7.262;2022-12-05T09:57:48;2.00;99.90
2190;DHT22;1101;51.056;7.262;2022-12-05T10:00:18;2.00;99.90
2190;DHT22;1101;51.056;7.262;2022-12-05T10:02:53;2.00;99.90
2190;DHT22;1101;51.056;7.262;2022-12-05T10:05:28;2.00;99.90
2190;DHT22;1101;51.056;7.262;2022-12-05T10:08:02;2.00;99.90
2190;DHT22;1101;51.056;7.262;2022-12-05T10:10:43;2.00;99.90
2190;DHT22;1101;51.056;7.262;2022-12-05T10:13:31;2.00;99.90
2190;DHT22;1101;51.056;7.262;2022-12-05T10:16:06;2.00;99.90
2190;DHT22;1101;51.056;7.262;2022-12-05T10:18:38;2.00;99.90
2190;DHT22;1101;51.056;7.262;2022-12-05T10:21:14;2.00;99.90
2190;DHT22;1101;51.056;7.262;2022-12-05T10:23:50;2.00;99.90
2190;DHT22;1101;51.056;7.262;2022-12-05T10:26:26;2.00;99.90
2190;DHT22;1101;51.056;7.262;2022-12-05T10:28:58;2.00;99.90
2190;DHT22;1101;51.056;7.262;2022-12-05T10:31:30;2.00;99.90
2190;DHT22;1101;51.056;7.262;2022-12-05T10:34:04;2.10;99.90
2190;DHT22;1101;51.056;7.262;2022-12-05T10:36:34;2.10;99.90
2190;DHT22;1101;51.056;7.262;2022-12-05T10:39:02;2.10;99.90
2190;DHT22;1101;51.056;7.262;2022-12-05T10:41:36;2.10;99.90
2190;DHT22;1101;51.056;7.262;2022-12-05T10:44:04;2.10;99.90
2190;DHT22;1101;51.056;7.262;2022-12-05T10:46:32;2.10;99.90
2190;DHT22;1101;51.056;7.262;2022-12-05T10:49:00;2.10;99.90
2190;DHT22;1101;51.056;7.262;2022-12-05T10:51:29;2.10;99.90
2190;DHT22;1101;51.056;7.262;2022-12-05T10:54:14;2.10;99.90
2190;DHT22;1101;51.056;7.262;2022-12-05T10:56:45;2.10;99.90
2190;DHT22;1101;51.056;7.262;2022-12-05T10:59:14;2.20;99.90
2190;DHT22;1101;51.056;7.262;2022-12-05T11:01:47;2.20;99.90
2190;DHT22;1101;51.056;7.262;2022-12-05T11:04:25;2.20;99.90
2190;DHT22;1101;51.056;7.262;2022-12-05T11:06:56;2.20;99.90
2190;DHT22;1101;51.056;7.262;2022-12-05T11:09:28;2.20;99.90
2190;DHT22;1101;51.056;7.262;2022-12-05T11:12:00;2.20;99.90
2190;DHT22;1101;51.056;7.262;2022-12-05T11:14:29;2.20;99.90
2190;DHT22;1101;51.056;7.262;2022-12-05T11:17:01;2.20;99.90
2190;DHT22;1101;51.056;7.262;2022-12-05T11:19:31;2.20;99.90
2190;DHT22;1101;51.056;7.262;2022-12-05T11:21:59;2.20;99.90
2190;DHT22;1101;51.056;7.262;2022-12-05T11:24:30;2.20;99.90
2190;DHT22;1101;51.056;7.262;2022-12-05T11:27:12;2.30;99.90
2190;DHT22;1101;51.056;7.262;2022-12-05T11:29:54;2.30;99.90
2190;DHT22;1101;51.056;7.262;2022-12-05T11:32:26;2.30;99.90
2190;DHT22;1101;51.056;7.262;2022-12-05T11:35:00;2.30;99.90
2190;DHT22;1101;51.056;7.262;2022-12-05T11:37:36;2.30;99.90
2190;DHT22;1101;51.056;7.262;2022-12-05T11:40:14;2.30;99.90
2190;DHT22;1101;51.056;7.262;2022-12-05T11:42:55;2.30;99.90
2190;DHT22;1101;51.056;7.262;2022-12-05T11:45:39;2.30;99.90
2190;DHT22;1101;51.056;7.262;2022-12-05T11:48:29;2.30;99.90
2190;DHT22;1101;51.056;7.262;2022-12-05T11:51:09;2.30;99.90
2190;DHT22;1101;51.056;7.262;2022-12-05T11:53:58;2.30;99.90
2190;DHT22;1101;51.056;7.262;2022-12-05T11:56:36;2.30;99.90
2190;DHT22;1101;51.056;7.262;2022-12-05T11:59:18;2.30;99.90
2190;DHT22;1101;51.056;7.262;2022-12-05T12:01:54;2.30;99.90
2190;DHT22;1101;51.056;7.262;2022-12-05T12:04:43;2.30;99.90
2190;DHT22;1101;51.056;7.262;2022-12-05T12:07:23;2.30;99.90
2190;DHT22;1101;51.056;7.262;2022-12-05T12:10:00;2.30;99.90
2190;DHT22;1101;51.056;7.262;2022-12-05T12:12:44;2.30;99.90
2190;DHT22;1101;51.056;7.262;2022-12-05T12:15:30;2.40;99.90
2190;DHT22;1101;51.056;7.262;2022-12-05T12:18:08;2.40;99.90
2190;DHT22;1101;51.056;7.262;2022-12-05T12:20:48;2.40;99.90
2190;DHT22;1101;51.056;7.262;2022-12-05T12:23:28;2.40;99.90
2190;DHT22;1101;51.056;7.262;2022-12-05T12:26:06;2.40;99.90
2190;DHT22;1101;51.056;7.262;2022-12-05T12:28:42;2.40;99.90
2190;DHT22;1101;51.056;7.262;2022-12-05T12:31:23;2.40;99.90
2190;DHT22;1101;51.056;7.262;2022-12-05T12:33:57;2.40;99.90
2190;DHT22;1101;51.056;7.262;2022-12-05T12:36:34;2.40;99.90
2190;DHT22;1101;51.056;7.262;2022-12-05T12:39:12;2.40;99.90
2190;DHT22;1101;51.056;7.262;2022-12-05T12:41:57;2.40;99.90
2190;DHT22;1101;51.056;7.262;2022-12-05T12:44:47;2.40;99.90
2190;DHT22;1101;51.056;7.262;2022-12-05T12:47:24;2.40;99.90
2190;DHT22;1101;51.056;7.262;2022-12-05T12:50:03;2.40;99.90
2190;DHT22;1101;51.056;7.262;2022-12-05T12:52:49;2.40;99.90
2190;DHT22;1101;51.056;7.262;2022-12-05T12:55:23;2.40;99.90
2190;DHT22;1101;51.056;7.262;2022-12-05T12:58:02;2.40;99.90
2190;DHT22;1101;51.056;7.262;2022-12-05T13:00:41;2.40;99.90
2190;DHT22;1101;51.056;7.262;2022-12-05T13:03:16;2.40;99.90
2190;DHT22;1101;51.056;7.262;2022-12-05T13:05:47;2.40;99.90
2190;DHT22;1101;51.056;7.262;2022-12-05T13:08:22;2.40;99.90
2190;DHT22;1101;51.056;7.262;2022-12-05T13:10:51;2.40;99.90
2190;DHT22;1101;51.056;7.262;2022-12-05T13:13:21;2.40;99.90
2190;DHT22;1101;51.056;7.262;2022-12-05T13:15:53;2.40;99.90
2190;DHT22;1101;51.056;7.262;2022-12-05T13:18:24;2.40;99.90
2190;DHT22;1101;51.056;7.262;2022-12-05T13:20:53;2.40;99.90
2190;DHT22;1101;51.056;7.262;2022-12-05T13:23:23;2.40;99.90
2190;DHT22;1101;51.056;7.262;2022-12-05T13:25:53;2.40;99.90
2190;DHT22;1101;51.056;7.262;2022-12-05T13:28:28;2.40;99.90
2190;DHT22;1101;51.056;7.262;2022-12-05T13:30:58;2.40;99.90
2190;DHT22;1101;51.056;7.262;2022-12-05T13:33:32;2.40;99.90
2190;DHT22;1101;51.056;7.262;2022-12-05T13:36:08;2.40;99.90
2190;DHT22;1101;51.056;7.262;2022-12-05T13:38:59;2.40;99.90
2190;DHT22;1101;51.056;7.262;2022-12-05T13:41:47;2.40;99.90
2190;DHT22;1101;51.056;7.262;2022-12-05T13:44:36;2.40;99.90
2190;DHT22;1101;51.056;7.262;2022-12-05T13:47:14;2.40;99.90
2190;DHT22;1101;51.056;7.262;2022-12-05T13:49:49;2.40;99.90
2190;DHT22;1101;51.056;7.262;2022-12-05T13:52:22;2.40;99.90
2190;DHT22;1101;51.056;7.262;2022-12-05T13:54:55;2.40;99.90
2190;DHT22;1101;51.056;7.262;2022-12-05T13:57:52;2.40;99.90
2190;DHT22;1101;51.056;7.262;2022-12-05T14:00:28;2.40;99.90
2190;DHT22;1101;51.056;7.262;2022-12-05T14:03:14;2.40;99.90
2190;DHT22;1101;51.056;7.262;2022-12-05T14:05:46;2.40;99.90
2190;DHT22;1101;51.056;7.262;2022-12-05T14:11:11;2.40;99.90
2190;DHT22;1101;51.056;7.262;2022-12-05T14:13:41;2.40;99.90
2190;DHT22;1101;51.056;7.262;2022-12-05T14:16:37;2.40;99.90
2190;DHT22;1101;51.056;7.262;2022-12-05T14:22:20;2.30;99.90
2190;DHT22;1101;51.056;7.262;2022-12-05T14:24:55;2.30;99.90
2190;DHT22;1101;51.056;7.262;2022-12-05T14:27:40;2.30;99.90
2190;DHT22;1101;51.056;7.262;2022-12-05T14:30:19;2.30;99.90
2190;DHT22;1101;51.056;7.262;2022-12-05T14:32:48;2.30;99.90
2190;DHT22;1101;51.056;7.262;2022-12-05T14:35:22;2.30;99.90
2190;DHT22;1101;51.056;7.262;2022-12-05T14:37:54;2.30;99.90
2190;DHT22;1101;51.056;7.262;2022-12-05T14:40:28;2.30;99.90
2190;DHT22;1101;51.056;7.262;2022-12-05T14:42:59;2.30;99.90
2190;DHT22;1101;51.056;7.262;2022-12-05T14:45:34;2.30;99.90
2190;DHT22;1101;51.056;7.262;2022-12-05T14:48:21;2.30;99.90
2190;DHT22;1101;51.056;7.262;2022-12-05T14:50:55;2.30;99.90
2190;DHT22;1101;51.056;7.262;2022-12-05T14:53:35;2.30;99.90
2190;DHT22;1101;51.056;7.262;2022-12-05T14:56:16;2.30;99.90
2190;DHT22;1101;51.056;7.262;2022-12-05T14:58:49;2.30;99.90
2190;DHT22;1101;51.056;7.262;2022-12-05T15:01:21;2.30;99.90
2190;DHT22;1101;51.056;7.262;2022-12-05T15:06:52;2.30;99.90
2190;DHT22;1101;51.056;7.262;2022-12-05T15:09:30;2.20;99.90
2190;DHT22;1101;51.056;7.262;2022-12-05T15:12:09;2.20;99.90
2190;DHT22;1101;51.056;7.262;2022-12-05T15:14:51;2.20;99.90
2190;DHT22;1101;51.056;7.262;2022-12-05T15:17:24;2.20;99.90
2190;DHT22;1101;51.056;7.262;2022-12-05T15:19:57;2.20;99.90
2190;DHT22;1101;51.056;7.262;2022-12-05T15:22:33;2.20;99.90
2190;DHT22;1101;51.056;7.262;2022-12-05T15:25:19;2.20;99.90
2190;DHT22;1101;51.056;7.262;2022-12-05T15:27:55;2.20;99.90
2190;DHT22;1101;51.056;7.262;2022-12-05T15:30:24;2.20;99.90
2190;DHT22;1101;51.056;7.262;2022-12-05T15:32:53;2.20;99.90
2190;DHT22;1101;51.056;7.262;2022-12-05T15:35:27;2.20;99.90
2190;DHT22;1101;51.056;7.262;2022-12-05T15:37:59;2.20;99.90
2190;DHT22;1101;51.056;7.262;2022-12-05T15:40:32;2.20;99.90
2190;DHT22;1101;51.056;7.262;2022-12-05T15:43:24;2.20;99.90
2190;DHT22;1101;51.056;7.262;2022-12-05T15:46:17;2.20;99.90
2190;DHT22;1101;51.056;7.262;2022-12-05T15:48:49;2.20;99.90
2190;DHT22;1101;51.056;7.262;2022-12-05T15:51:18;2.20;99.90
2190;DHT22;1101;51.056;7.262;2022-12-05T15:53:51;2.20;99.90
2190;DHT22;1101;51.056;7.262;2022-12-05T15:56:24;2.20;99.90
2190;DHT22;1101;51.056;7.262;2022-12-05T15:58:57;2.10;99.90
2190;DHT22;1101;51.056;7.262;2022-12-05T16:01:28;2.10;99.90
2190;DHT22;1101;51.056;7.262;2022-12-05T16:03:58;2.10;99.90
2190;DHT22;1101;51.056;7.262;2022-12-05T16:06:30;2.10;99.90
2190;DHT22;1101;51.056;7.262;2022-12-05T16:09:03;2.10;99.90
2190;DHT22;1101;51.056;7.262;2022-12-05T16:11:37;2.10;99.90
2190;DHT22;1101;51.056;7.262;2022-12-05T16:14:06;2.10;99.90
2190;DHT22;1101;51.056;7.262;2022-12-05T16:16:36;2.10;99.90
2190;DHT22;1101;51.056;7.262;2022-12-05T16:19:11;2.10;99.90
2190;DHT22;1101;51.056;7.262;2022-12-05T16:21:42;2.10;99.90
2190;DHT22;1101;51.056;7.262;2022-12-05T16:24:17;2.10;99.90
2190;DHT22;1101;51.056;7.262;2022-12-05T16:26:53;2.00;99.90
2190;DHT22;1101;51.056;7.262;2022-12-05T16:29:25;2.00;99.90
2190;DHT22;1101;51.056;7.262;2022-12-05T16:31:55;2.00;99.90
2190;DHT22;1101;51.056;7.262;2022-12-05T16:34:24;2.00;99.90
2190;DHT22;1101;51.056;7.262;2022-12-05T16:36:54;2.00;99.90
2190;DHT22;1101;51.056;7.262;2022-12-05T16:39:24;2.00;99.90
2190;DHT22;1101;51.056;7.262;2022-12-05T16:41:54;2.00;99.90
2190;DHT22;1101;51.056;7.262;2022-12-05T16:44:53;2.00;99.90
2190;DHT22;1101;51.056;7.262;2022-12-05T16:47:58;1.90;99.90
2190;DHT22;1101;51.056;7.262;2022-12-05T16:50:31;1.90;99.90
2190;DHT22;1101;51.056;7.262;2022-12-05T16:53:02;1.90;99.90
2190;DHT22;1101;51.056;7.262;2022-12-05T16:55:31;1.90;99.90
2190;DHT22;1101;51.056;7.262;2022-12-05T16:58:03;1.90;99.90
2190;DHT22;1101;51.056;7.262;2022-12-05T17:00:31;1.90;99.90
2190;DHT22;1101;51.056;7.262;2022-12-05T17:02:59;1.90;99.90
2190;DHT22;1101;51.056;7.262;2022-12-05T17:05:47;1.90;99.90